Time;durP1;ratioP1;P1;durP2;ratioP2;P2;SDS_P1;SDS_P2;PMS_P1;PMS_P2;Temp;Humidity;BMP_temperature;BMP_pressure;BME280_temperature;BME280_humidity;BME280_pressure;Samples;Min_cycle;Max_cycle;Signal;HPM_P1;HPM_P2
2022/08/11 00:01:52;;;;;;;;;;;;;;;23.89;21.39;101775.47;5006608;28;19996;-82
2022/08/11 00:04:24;;;;;;;;;;;;;;;23.85;21.18;101770.47;5040056;28;19963;-82
2022/08/11 00:06:52;;;;;;;;;;;;;;;23.81;21.37;101761.63;5019218;28;20330;-83
2022/08/11 00:09:23;;;;;;;;;;;;;;;23.79;21.27;101766.53;5011329;28;20261;-83
2022/08/11 00:11:51;;;;;;;;;;;;;;;23.76;21.35;101767.78;5017775;28;19921;-82
2022/08/11 00:14:20;;;;;;;;;;;;;;;23.73;21.34;101772.91;5022606;28;19913;-82
2022/08/11 00:16:55;;;;;;;;;;;;;;;23.70;21.55;101765.78;5040303;28;19928;-83
2022/08/11 00:19:27;;;;;;;;;;;;;;;23.67;21.67;101768.94;5025848;28;20410;-83
2022/08/11 00:22:20;;;;;;;;;;;;;;;23.64;21.19;101766.56;5032775;28;20019;-83
2022/08/11 00:24:49;;;;;;;;;;;;;;;23.61;21.36;101766.97;5009281;28;19994;-82
2022/08/11 00:27:31;;;;;;;;;;;;;;;23.58;21.56;101766.50;5013579;28;19928;-83
2022/08/11 00:29:59;;;;;;;;;;;;;;;23.55;21.35;101762.19;5024358;28;19921;-83
2022/08/11 00:32:28;;;;;;;;;;;;;;;23.52;21.59;101761.69;5028633;28;20011;-83
2022/08/11 00:34:58;;;;;;;;;;;;;;;23.49;21.63;101757.38;5025488;28;19925;-83
2022/08/11 00:37:49;;;;;;;;;;;;;;;23.46;21.85;101763.34;5030618;28;20012;-82
2022/08/11 00:40:19;;;;;;;;;;;;;;;23.44;21.59;101753.44;5033988;28;19925;-82
2022/08/11 00:42:56;;;;;;;;;;;;;;;23.42;22.03;101758.34;5045753;28;19921;-82
2022/08/11 00:45:27;;;;;;;;;;;;;;;23.40;21.49;101761.38;5011650;28;21304;-83
2022/08/11 00:48:02;;;;;;;;;;;;;;;23.37;21.76;101753.38;5050571;28;19927;-83
2022/08/11 00:50:41;;;;;;;;;;;;;;;23.35;21.93;101759.16;5042827;28;19948;-83
2022/08/11 00:53:24;;;;;;;;;;;;;;;23.32;21.66;101759.56;5027171;28;19928;-83
2022/08/11 00:56:26;;;;;;;;;;;;;;;23.31;21.66;101759.75;5011632;28;19925;-82
2022/08/11 00:59:15;;;;;;;;;;;;;;;23.27;22.25;101763.97;5021296;28;19921;-82
2022/08/11 01:02:15;;;;;;;;;;;;;;;23.23;22.31;101760.72;5019008;28;19928;-82
2022/08/11 01:04:56;;;;;;;;;;;;;;;23.22;22.08;101763.72;5034399;28;19921;-82
2022/08/11 01:10:44;;;;;;;;;;;;;;;23.14;22.32;101755.41;5029465;28;19927;-82
2022/08/11 01:13:18;;;;;;;;;;;;;;;23.12;22.12;101757.53;5015860;28;20379;-82
2022/08/11 01:16:10;;;;;;;;;;;;;;;23.08;22.15;101751.50;5033936;28;19924;-82
2022/08/11 01:19:03;;;;;;;;;;;;;;;23.05;22.28;101757.47;5026423;28;19986;-82
2022/08/11 01:22:02;;;;;;;;;;;;;;;23.01;22.21;101761.69;5008070;28;19928;-83
2022/08/11 01:24:44;;;;;;;;;;;;;;;22.97;22.07;101755.66;5033004;28;19964;-83
2022/08/11 01:27:39;;;;;;;;;;;;;;;22.94;22.48;101747.66;5029110;28;19960;-83
2022/08/11 01:30:22;;;;;;;;;;;;;;;22.90;22.46;101749.13;4993167;28;19928;-83
2022/08/11 01:33:07;;;;;;;;;;;;;;;22.87;22.13;101752.28;5036429;28;19921;-83
2022/08/11 01:35:47;;;;;;;;;;;;;;;22.85;22.59;101753.53;5027093;28;19921;-83
2022/08/11 01:38:32;;;;;;;;;;;;;;;22.82;22.39;101751.13;5031901;28;19920;-83
2022/08/11 01:41:15;;;;;;;;;;;;;;;22.79;22.70;101745.94;5042473;28;19970;-83
2022/08/11 01:47:02;;;;;;;;;;;;;;;22.71;22.67;101754.41;5014975;28;19936;-83
2022/08/11 01:49:34;;;;;;;;;;;;;;;22.67;22.59;101753.06;5034771;28;19928;-83
2022/08/11 01:52:26;;;;;;;;;;;;;;;22.63;22.47;101750.66;5027163;28;19921;-84
2022/08/11 01:55:13;;;;;;;;;;;;;;;22.60;23.15;101750.16;5015508;28;19925;-83
2022/08/11 01:57:44;;;;;;;;;;;;;;;22.56;23.00;101751.63;5014458;28;19921;-83
2022/08/11 02:00:16;;;;;;;;;;;;;;;22.52;22.69;101753.88;5009111;28;20422;-83
2022/08/11 02:02:52;;;;;;;;;;;;;;;22.48;22.95;101758.13;5027507;28;20019;-83
2022/08/11 02:05:26;;;;;;;;;;;;;;;22.45;22.70;101752.06;5025984;28;19933;-84
2022/08/11 02:08:02;;;;;;;;;;;;;;;22.40;23.29;101752.63;5034820;28;19970;-84
2022/08/11 02:13:40;;;;;;;;;;;;;;;22.34;22.82;101749.75;5017719;28;19932;-84
2022/08/11 02:16:16;;;;;;;;;;;;;;;22.29;23.33;101750.31;5019181;28;19951;-83
2022/08/11 02:24:30;;;;;;;;;;;;;;;22.18;23.68;101757.19;5047116;28;19966;-83
2022/08/11 02:27:02;;;;;;;;;;;;;;;22.14;23.48;101752.22;5033527;28;19925;-83
2022/08/11 02:29:33;;;;;;;;;;;;;;;22.11;23.43;101756.22;5006813;28;19922;-83
2022/08/11 02:35:04;;;;;;;;;;;;;;;22.05;23.42;101761.69;5028394;28;19921;-83
2022/08/11 02:37:37;;;;;;;;;;;;;;;22.01;23.45;101749.22;5018283;28;20429;-83
2022/08/11 02:40:31;;;;;;;;;;;;;;;21.97;23.85;101748.72;5017060;28;19921;-83
2022/08/11 02:43:09;;;;;;;;;;;;;;;21.94;23.54;101756.56;4982837;28;20021;-83
2022/08/11 02:45:46;;;;;;;;;;;;;;;21.91;23.69;101751.38;5027862;28;19932;-83
2022/08/11 02:51:20;;;;;;;;;;;;;;;21.82;23.92;101759.78;5023953;28;19946;-83
2022/08/11 02:53:55;;;;;;;;;;;;;;;21.79;23.89;101762.06;5010421;28;20016;-83
2022/08/11 02:56:36;;;;;;;;;;;;;;;21.76;24.03;101759.66;5012666;28;19921;-84
2022/08/11 03:02:00;;;;;;;;;;;;;;;21.69;24.40;101755.88;5016017;28;19921;-83
2022/08/11 03:04:37;;;;;;;;;;;;;;;21.66;24.12;101759.03;5035750;28;19925;-84
2022/08/11 03:07:08;;;;;;;;;;;;;;;21.63;24.46;101762.19;5039583;28;19927;-83
2022/08/11 03:10:03;;;;;;;;;;;;;;;21.59;24.33;101767.28;5029141;28;19921;-83
2022/08/11 03:18:16;;;;;;;;;;;;;;;21.51;24.19;101762.63;5011545;28;19921;-83
2022/08/11 03:20:47;;;;;;;;;;;;;;;21.48;24.54;101765.78;5034594;28;19921;-83
2022/08/11 03:23:19;;;;;;;;;;;;;;;21.45;24.52;101762.47;5022393;28;19924;-84
2022/08/11 03:25:51;;;;;;;;;;;;;;;21.43;24.86;101761.81;5039408;28;19936;-84
2022/08/11 03:28:27;;;;;;;;;;;;;;;21.40;24.40;101759.41;5008825;28;19924;-84
2022/08/11 03:31:01;;;;;;;;;;;;;;;21.37;24.49;101754.19;5028377;28;19931;-84
2022/08/11 03:36:23;;;;;;;;;;;;;;;21.31;24.78;101757.72;5032953;28;19921;-84
2022/08/11 03:38:59;;;;;;;;;;;;;;;21.29;25.07;101759.81;5033961;28;19921;-84
2022/08/11 03:41:43;;;;;;;;;;;;;;;21.25;24.62;101756.50;5030709;28;19978;-84
2022/08/11 03:44:43;;;;;;;;;;;;;;;21.21;24.88;101759.81;5017371;28;19921;-84
2022/08/11 03:47:28;;;;;;;;;;;;;;;21.17;24.99;101753.75;5025398;28;19924;-84
2022/08/11 03:50:03;;;;;;;;;;;;;;;21.13;25.42;101755.16;5033894;28;19925;-84
2022/08/11 03:52:38;;;;;;;;;;;;;;;21.09;25.21;101756.59;5012482;28;19936;-83
2022/08/11 03:55:10;;;;;;;;;;;;;;;21.06;25.24;101748.59;5010691;28;19971;-83
2022/08/11 03:58:04;;;;;;;;;;;;;;;21.02;25.44;101755.59;5020795;28;19928;-84
2022/08/11 04:01:04;;;;;;;;;;;;;;;20.99;25.44;101758.72;5025021;28;19925;-84
2022/08/11 04:03:53;;;;;;;;;;;;;;;20.94;25.36;101756.50;5007437;28;19937;-83
2022/08/11 04:06:36;;;;;;;;;;;;;;;20.90;25.46;101752.31;4982899;28;20321;-82
2022/08/11 04:09:31;;;;;;;;;;;;;;;20.88;25.46;101759.97;5016845;28;20283;-82
2022/08/11 04:12:27;;;;;;;;;;;;;;;20.86;25.58;101755.66;5028335;28;19960;-80
2022/08/11 04:18:31;;;;;;;;;;;;;;;20.81;25.31;101750.63;5032099;28;19964;-80
2022/08/11 04:21:09;;;;;;;;;;;;;;;20.78;25.67;101753.75;5025462;28;20017;-80
2022/08/11 04:24:02;;;;;;;;;;;;;;;20.76;25.63;101758.66;5016127;28;19921;-79
2022/08/11 04:27:08;;;;;;;;;;;;;;;20.73;25.64;101759.00;5027280;28;19931;-80
2022/08/11 04:29:56;;;;;;;;;;;;;;;20.71;25.97;101759.19;5019859;28;19921;-79
2022/08/11 04:32:44;;;;;;;;;;;;;;;20.69;25.52;101760.44;5021397;28;19932;-80
2022/08/11 04:35:33;;;;;;;;;;;;;;;20.67;26.12;101771.72;5006292;28;19925;-81
2022/08/11 04:38:31;;;;;;;;;;;;;;;20.65;25.72;101771.03;5030300;28;20375;-79
2022/08/11 04:41:20;;;;;;;;;;;;;;;20.63;25.90;101764.75;5034417;28;19986;-81
2022/08/11 04:44:11;;;;;;;;;;;;;;;20.60;26.14;101759.59;5038289;28;19943;-81
2022/08/11 04:46:56;;;;;;;;;;;;;;;20.57;26.28;101757.13;5011935;28;20463;-80
2022/08/11 05:01:41;;;;;;;;;;;;;;;20.48;26.33;101772.09;5036425;28;19921;-81
2022/08/11 05:07:12;;;;;;;;;;;;;;;20.48;26.38;101765.66;5039941;28;19936;-79
2022/08/11 05:09:51;;;;;;;;;;;;;;;20.48;26.18;101771.22;5026705;28;20314;-78
2022/08/11 05:12:25;;;;;;;;;;;;;;;20.49;26.58;101772.94;5035106;28;19925;-81
2022/08/11 05:35:13;;;;;;;;;;;;;;;20.68;27.00;101795.72;5012157;28;19932;-78
2022/08/11 05:57:56;;;;;;;;;;;;;;;21.88;26.54;101795.25;5030472;28;20000;-82
2022/08/11 06:00:24;;;;;;;;;;;;;;;21.98;26.43;101796.97;5012455;28;20431;-83
2022/08/11 06:02:54;;;;;;;;;;;;;;;22.07;26.35;101796.72;5013818;28;20333;-81
2022/08/11 06:05:31;;;;;;;;;;;;;;;22.14;26.06;101797.69;5024611;28;20158;-81
2022/08/11 06:08:06;;;;;;;;;;;;;;;22.19;26.27;101789.59;5028579;28;19956;-80
2022/08/11 06:10:35;;;;;;;;;;;;;;;22.24;26.36;101797.44;5022850;28;19983;-81
2022/08/11 06:13:03;;;;;;;;;;;;;;;22.27;26.23;101785.88;5023468;28;19928;-81
2022/08/11 06:15:32;;;;;;;;;;;;;;;22.30;26.14;101793.00;4993645;28;19960;-80
2022/08/11 06:18:03;;;;;;;;;;;;;;;22.33;26.19;101795.44;5031214;28;19921;-80
2022/08/11 06:20:36;;;;;;;;;;;;;;;22.34;25.96;101789.66;5023512;28;19924;-81
2022/08/11 06:23:05;;;;;;;;;;;;;;;22.37;26.27;101796.75;5037193;28;19921;-80
2022/08/11 06:25:34;;;;;;;;;;;;;;;22.39;25.66;101795.53;5036336;28;19979;-79
2022/08/11 06:28:03;;;;;;;;;;;;;;;22.41;26.15;101787.84;5019909;28;19921;-81
2022/08/11 06:30:38;;;;;;;;;;;;;;;22.43;26.03;101790.41;5003265;28;19925;-81
2022/08/11 06:33:10;;;;;;;;;;;;;;;22.47;26.17;101797.38;5023756;28;20441;-81
2022/08/11 06:35:46;;;;;;;;;;;;;;;22.52;26.09;101795.72;5029931;28;20320;-81
2022/08/11 06:38:19;;;;;;;;;;;;;;;22.60;25.82;101794.81;5010732;28;20001;-80
2022/08/11 06:43:42;;;;;;;;;;;;;;;22.83;25.57;101784.44;5005054;28;20008;-91
2022/08/11 06:46:28;;;;;;;;;;;;;;;22.98;25.77;101790.00;5024745;28;19972;-90
2022/08/11 06:49:01;;;;;;;;;;;;;;;23.10;25.63;101785.66;5015186;28;19921;-87
2022/08/11 06:51:28;;;;;;;;;;;;;;;23.21;25.64;101785.19;5015637;28;20324;-90
2022/08/11 06:54:01;;;;;;;;;;;;;;;23.34;25.16;101790.06;5011919;28;19929;-90
2022/08/11 07:02:28;;;;;;;;;;;;;;;23.75;24.82;101793.97;5014523;28;19925;-89
2022/08/11 07:05:03;;;;;;;;;;;;;;;23.90;24.98;101796.78;5045212;28;19921;-92
2022/08/11 07:16:39;;;;;;;;;;;;;;;24.57;24.84;101793.47;4996344;28;19929;-89
2022/08/11 07:30:22;;;;;;;;;;;;;;;25.45;24.29;101795.50;5006169;28;19944;-91
2022/08/11 07:32:51;;;;;;;;;;;;;;;25.62;23.77;101785.66;5015308;28;19921;-89
2022/08/11 07:35:22;;;;;;;;;;;;;;;25.78;23.94;101783.53;5015908;28;20008;-92
2022/08/11 07:37:56;;;;;;;;;;;;;;;25.94;23.63;101788.75;5027889;28;20411;-92
2022/08/11 07:40:30;;;;;;;;;;;;;;;26.10;23.48;101788.34;5001539;28;19929;-92
2022/08/11 07:42:59;;;;;;;;;;;;;;;26.25;23.46;101794.63;5006124;28;20012;-92
2022/08/11 07:53:48;;;;;;;;;;;;;;;26.82;22.55;101786.56;4995071;28;19921;-92
2022/08/11 07:56:35;;;;;;;;;;;;;;;26.96;22.74;101791.06;5008904;28;19925;-92
2022/08/11 08:19:17;;;;;;;;;;;;;;;28.20;22.05;101777.44;5015580;28;19925;-91
2022/08/11 08:21:45;;;;;;;;;;;;;;;28.34;21.86;101779.09;5008799;28;19921;-91
2022/08/11 08:24:14;;;;;;;;;;;;;;;28.49;21.65;101781.53;5004257;28;19929;-91
2022/08/11 08:26:59;;;;;;;;;;;;;;;28.61;21.38;101788.13;5029103;28;19983;-92
2022/08/11 08:32:17;;;;;;;;;;;;;;;28.86;21.37;101783.34;5015236;28;20088;-92
2022/08/11 08:34:46;;;;;;;;;;;;;;;28.96;21.34;101786.47;5018759;28;20402;-93
2022/08/11 08:37:18;;;;;;;;;;;;;;;29.09;21.33;101782.66;5003535;28;19921;-92
2022/08/11 08:40:07;;;;;;;;;;;;;;;29.23;21.18;101788.97;5029826;28;19921;-93
2022/08/11 08:42:38;;;;;;;;;;;;;;;29.34;20.88;101785.41;5014666;28;20330;-93
2022/08/11 08:45:14;;;;;;;;;;;;;;;29.49;21.28;101793.44;5005705;28;20020;-93
2022/08/11 08:47:46;;;;;;;;;;;;;;;29.60;21.10;101787.84;5053170;28;19921;-92
2022/08/11 08:50:22;;;;;;;;;;;;;;;29.75;21.07;101783.78;5011198;28;19925;-92
2022/08/11 08:52:58;;;;;;;;;;;;;;;29.87;20.85;101791.16;5012670;28;19921;-92
2022/08/11 08:55:27;;;;;;;;;;;;;;;30.01;20.82;101788.97;5017378;28;19925;-92
2022/08/11 08:57:59;;;;;;;;;;;;;;;30.14;20.43;101790.75;5015678;28;19927;-92
2022/08/11 09:00:37;;;;;;;;;;;;;;;30.26;20.47;101791.63;5004773;28;19928;-93
2022/08/11 09:03:05;;;;;;;;;;;;;;;30.36;20.22;101789.94;5023847;28;20342;-92
2022/08/11 09:05:54;;;;;;;;;;;;;;;30.49;20.42;101791.69;5038829;28;19920;-93
2022/08/11 09:08:23;;;;;;;;;;;;;;;30.59;20.42;101785.41;5008534;28;20011;-93
2022/08/11 09:11:48;;;;;;;;;;;;;;;30.69;19.79;101791.31;5018785;28;19925;-93
2022/08/11 09:13:43;;;;;;;;;;;;;;;30.80;20.01;101788.50;5015190;28;19945;-92
2022/08/11 09:16:11;;;;;;;;;;;;;;;30.90;19.85;101784.22;5015375;28;19929;-93
2022/08/11 09:18:43;;;;;;;;;;;;;;;31.00;19.70;101790.94;5007799;28;19921;-92
2022/08/11 09:21:13;;;;;;;;;;;;;;;31.09;19.63;101780.94;4999298;28;19926;-93
2022/08/11 09:26:59;;;;;;;;;;;;;;;31.28;19.29;101789.31;4961957;28;20040;-92
2022/08/11 09:29:32;;;;;;;;;;;;;;;31.37;18.94;101785.84;5005371;28;20052;-92
2022/08/11 09:32:00;;;;;;;;;;;;;;;31.44;18.66;101780.03;5029959;28;20419;-92
2022/08/11 09:34:28;;;;;;;;;;;;;;;31.49;18.69;101783.81;5017593;28;20346;-92
2022/08/11 09:45:53;;;;;;;;;;;;;;;31.73;18.02;101775.28;5013200;28;19928;-92
2022/08/11 09:48:21;;;;;;;;;;;;;;;31.76;18.28;101777.56;5022215;28;20020;-92
2022/08/11 09:50:50;;;;;;;;;;;;;;;31.80;18.63;101770.31;5012122;28;19922;-91
2022/08/11 09:53:20;;;;;;;;;;;;;;;31.85;18.49;101770.38;5037074;28;19928;-92
2022/08/11 09:58:47;;;;;;;;;;;;;;;31.97;18.55;101766.38;5004472;28;19925;-92
2022/08/11 10:01:26;;;;;;;;;;;;;;;32.04;18.12;101765.34;5018139;28;20008;-92
2022/08/11 10:04:00;;;;;;;;;;;;;;;32.11;18.27;101764.06;5012757;28;20281;-92
2022/08/11 10:09:22;;;;;;;;;;;;;;;32.29;17.65;101763.00;5008564;28;19972;-91
2022/08/11 10:11:53;;;;;;;;;;;;;;;32.36;18.07;101760.84;4994333;28;19920;-92
2022/08/11 10:17:14;;;;;;;;;;;;;;;32.50;17.61;101748.03;5008417;28;19944;-91
2022/08/11 10:19:45;;;;;;;;;;;;;;;32.57;17.65;101751.53;4995334;28;20000;-91
2022/08/11 10:28:04;;;;;;;;;;;;;;;32.78;17.32;101751.88;5005744;28;19921;-91
2022/08/11 10:34:00;;;;;;;;;;;;;;;32.87;17.08;101731.31;4961196;28;19928;-90
2022/08/11 10:36:29;;;;;;;;;;;;;;;32.93;17.19;101730.25;4995748;28;19921;-90
2022/08/11 10:38:57;;;;;;;;;;;;;;;32.98;16.69;101724.63;5001960;28;19977;-90
2022/08/11 10:44:36;;;;;;;;;;;;;;;33.10;16.99;101720.84;5023816;28;20363;-90
2022/08/11 10:51:11;;;;;;;;;;;;;;;33.19;16.81;101713.59;5018565;28;19921;-91
2022/08/11 11:00:59;;;;;;;;;;;;;;;33.24;16.39;101699.47;5003889;28;20392;-90
2022/08/11 11:03:29;;;;;;;;;;;;;;;33.23;15.83;101712.78;5012017;28;19921;-90
2022/08/11 11:06:03;;;;;;;;;;;;;;;33.24;16.39;101703.16;5025363;28;19971;-91
2022/08/11 11:08:54;;;;;;;;;;;;;;;33.25;15.87;101690.69;5016858;28;19921;-90
2022/08/11 11:19:49;;;;;;;;;;;;;;;33.37;16.23;101682.03;5000686;28;19922;-91
2022/08/11 11:22:39;;;;;;;;;;;;;;;33.39;15.61;101680.63;5011014;28;19921;-91
2022/08/11 11:25:15;;;;;;;;;;;;;;;33.42;16.07;101677.25;5010200;28;19928;-91
2022/08/11 11:27:51;;;;;;;;;;;;;;;33.45;15.64;101685.25;5017144;28;19925;-91
2022/08/11 11:30:19;;;;;;;;;;;;;;;33.49;16.06;101679.00;5016422;28;19975;-90
2022/08/11 11:32:57;;;;;;;;;;;;;;;33.51;15.34;101672.00;5013337;28;19968;-92
2022/08/11 11:35:30;;;;;;;;;;;;;;;33.53;15.29;101660.38;4997136;28;19925;-91
2022/08/11 11:38:00;;;;;;;;;;;;;;;33.55;15.22;101660.94;5001481;28;19921;-90
2022/08/11 11:40:32;;;;;;;;;;;;;;;33.56;15.38;101666.34;4999691;28;19983;-89
2022/08/11 11:43:01;;;;;;;;;;;;;;;33.56;15.01;101660.69;4993288;28;19924;-90
2022/08/11 11:45:29;;;;;;;;;;;;;;;33.55;15.14;101661.78;5023817;28;19921;-89
2022/08/11 11:50:55;;;;;;;;;;;;;;;33.51;14.88;101649.28;5015641;28;19931;-91
2022/08/11 11:53:26;;;;;;;;;;;;;;;33.50;15.53;101644.72;5017841;28;19928;-91
2022/08/11 11:55:55;;;;;;;;;;;;;;;33.50;15.03;101641.00;4996762;28;19922;-90
2022/08/11 12:01:16;;;;;;;;;;;;;;;33.53;15.32;101634.84;5008606;28;19921;-91
2022/08/11 12:03:45;;;;;;;;;;;;;;;33.56;15.18;101642.78;5052695;28;19921;-91
2022/08/11 12:06:14;;;;;;;;;;;;;;;33.57;14.61;101636.84;5035367;28;19971;-91
2022/08/11 12:08:44;;;;;;;;;;;;;;;33.59;15.22;101626.09;5024784;28;19921;-91
2022/08/11 12:14:00;;;;;;;;;;;;;;;33.61;14.86;101629.53;5005519;28;19948;-89
2022/08/11 12:16:28;;;;;;;;;;;;;;;33.59;14.30;101623.25;5001349;28;19921;-91
2022/08/11 12:19:03;;;;;;;;;;;;;;;33.60;14.38;101626.94;5015004;28;19928;-90
2022/08/11 12:21:32;;;;;;;;;;;;;;;33.61;14.95;101620.16;5043694;28;19971;-90
2022/08/11 12:29:45;;;;;;;;;;;;;;;33.68;14.82;101606.56;5006617;28;20072;-88
2022/08/11 12:32:17;;;;;;;;;;;;;;;33.70;14.79;101613.69;5013034;28;19925;-90
2022/08/11 12:34:45;;;;;;;;;;;;;;;33.71;14.49;101592.69;5033584;28;20379;-90
2022/08/11 12:37:13;;;;;;;;;;;;;;;33.73;13.94;101593.25;5016903;28;19929;-89
2022/08/11 12:46:07;;;;;;;;;;;;;;;33.72;14.49;101585.88;5013736;28;19953;-91
2022/08/11 12:54:41;;;;;;;;;;;;;;;33.76;14.58;101572.00;5017546;28;19921;-90
2022/08/11 13:05:36;;;;;;;;;;;;;;;33.86;13.86;101566.41;5016304;28;20334;-91
2022/08/11 13:08:13;;;;;;;;;;;;;;;33.90;14.14;101561.00;5012368;28;19921;-90
2022/08/11 13:13:29;;;;;;;;;;;;;;;33.94;14.10;101560.25;5021214;28;19933;-89
2022/08/11 13:16:19;;;;;;;;;;;;;;;33.95;13.45;101572.47;5021386;28;20012;-91
2022/08/11 13:18:47;;;;;;;;;;;;;;;33.93;13.92;101563.31;5005813;28;19968;-91
2022/08/11 13:21:15;;;;;;;;;;;;;;;33.92;13.81;101553.94;5022904;28;19922;-91
2022/08/11 13:23:48;;;;;;;;;;;;;;;33.92;14.22;101548.25;5026092;28;19921;-90
2022/08/11 13:26:29;;;;;;;;;;;;;;;33.91;13.58;101549.38;5017646;28;19964;-91
2022/08/11 13:29:17;;;;;;;;;;;;;;;33.91;13.62;101542.84;5001782;28;20364;-91
2022/08/11 13:31:46;;;;;;;;;;;;;;;33.91;13.79;101534.34;5010030;28;20344;-90
2022/08/11 13:34:14;;;;;;;;;;;;;;;33.92;14.03;101541.72;5012163;28;19922;-91
2022/08/11 13:36:43;;;;;;;;;;;;;;;33.92;13.95;101541.72;5023262;28;20380;-91
2022/08/11 13:39:12;;;;;;;;;;;;;;;33.92;13.35;101536.03;5014899;28;19921;-91
2022/08/11 13:41:43;;;;;;;;;;;;;;;33.93;13.35;101537.75;5002748;28;19975;-91
2022/08/11 13:44:13;;;;;;;;;;;;;;;33.91;13.28;101529.50;5008590;28;19921;-90
2022/08/11 13:46:46;;;;;;;;;;;;;;;33.90;13.45;101529.78;5005772;28;19931;-90
2022/08/11 13:49:20;;;;;;;;;;;;;;;33.88;12.98;101524.38;5026788;28;19925;-91
2022/08/11 13:51:49;;;;;;;;;;;;;;;33.86;13.09;101528.63;4983757;28;20015;-91
2022/08/11 13:54:17;;;;;;;;;;;;;;;33.81;12.98;101524.63;5006456;28;19976;-92
2022/08/11 13:56:46;;;;;;;;;;;;;;;33.78;13.48;101519.50;5026555;28;19921;-91
2022/08/11 13:59:15;;;;;;;;;;;;;;;33.74;13.02;101517.47;5010388;28;20014;-91
2022/08/11 14:01:47;;;;;;;;;;;;;;;33.70;13.08;101520.03;5018881;28;19921;-91
2022/08/11 14:04:39;;;;;;;;;;;;;;;33.65;13.18;101519.97;5007047;28;20372;-92
2022/08/11 14:07:09;;;;;;;;;;;;;;;33.60;13.41;101510.56;5004587;28;20307;-91
2022/08/11 14:09:37;;;;;;;;;;;;;;;33.57;13.55;101509.13;5013328;28;20360;-91
2022/08/11 14:14:59;;;;;;;;;;;;;;;33.51;13.28;101495.19;5027153;28;19929;-91
2022/08/11 14:17:36;;;;;;;;;;;;;;;33.49;13.20;101501.09;5011656;28;19925;-91
2022/08/11 14:20:19;;;;;;;;;;;;;;;33.47;13.01;101491.97;5020012;28;19921;-91
2022/08/11 14:23:04;;;;;;;;;;;;;;;33.45;13.02;101488.59;5016695;28;20007;-91
2022/08/11 14:25:33;;;;;;;;;;;;;;;33.44;13.05;101498.22;5036930;28;19924;-90
2022/08/11 14:28:21;;;;;;;;;;;;;;;33.43;12.91;101493.66;5018364;28;19972;-86
2022/08/11 14:31:01;;;;;;;;;;;;;;;33.39;13.43;101481.13;5008030;28;19924;-87
2022/08/11 14:33:30;;;;;;;;;;;;;;;33.36;13.04;101487.38;5033175;28;19924;-87
2022/08/11 14:36:24;;;;;;;;;;;;;;;33.32;12.94;101477.69;5014457;28;20363;-88
2022/08/11 14:38:53;;;;;;;;;;;;;;;33.29;13.45;101481.94;5037763;28;19959;-88
2022/08/11 14:47:17;;;;;;;;;;;;;;;33.17;12.93;101480.41;5033882;28;19927;-88
2022/08/11 14:49:53;;;;;;;;;;;;;;;33.12;12.73;101475.56;5016629;28;19925;-87
2022/08/11 14:52:43;;;;;;;;;;;;;;;33.07;13.26;101486.84;5018033;28;19921;-86
2022/08/11 14:57:58;;;;;;;;;;;;;;;32.99;12.86;101479.66;5029935;28;19925;-87
2022/08/11 15:00:26;;;;;;;;;;;;;;;32.97;13.32;101483.91;5018314;28;20205;-86
2022/08/11 15:03:09;;;;;;;;;;;;;;;32.94;12.88;101478.75;5031141;28;20015;-85
2022/08/11 15:05:39;;;;;;;;;;;;;;;32.90;12.97;101474.72;5013430;28;19921;-88
2022/08/11 15:08:09;;;;;;;;;;;;;;;32.86;13.00;101465.06;5037907;28;19927;-88
2022/08/11 15:10:37;;;;;;;;;;;;;;;32.84;13.42;101464.47;5034234;28;20386;-85
2022/08/11 15:13:05;;;;;;;;;;;;;;;32.81;13.67;101456.50;5040309;28;20409;-87
2022/08/11 15:18:22;;;;;;;;;;;;;;;32.75;13.28;101452.78;5013120;28;19929;-89
2022/08/11 15:37:35;;;;;;;;;;;;;;;32.56;13.73;101428.72;4985648;28;19922;-87
2022/08/11 15:46:01;;;;;;;;;;;;;;;32.46;13.69;101425.81;5007050;28;19929;-88
2022/08/11 15:48:34;;;;;;;;;;;;;;;32.42;13.64;101421.78;5014348;28;19921;-87
2022/08/11 15:51:08;;;;;;;;;;;;;;;32.40;13.35;101421.19;5023606;28;19921;-86
2022/08/11 15:53:40;;;;;;;;;;;;;;;32.36;13.29;101422.88;5012712;28;19940;-88
2022/08/11 15:56:10;;;;;;;;;;;;;;;32.31;13.40;101418.84;5039014;28;19967;-89
2022/08/11 16:04:35;;;;;;;;;;;;;;;32.17;13.81;101420.38;5027474;28;19925;-87
2022/08/11 16:07:05;;;;;;;;;;;;;;;32.13;13.37;101416.38;5021959;28;19929;-87
2022/08/11 16:09:35;;;;;;;;;;;;;;;32.09;13.72;101408.63;5013757;28;19948;-85
2022/08/11 16:12:17;;;;;;;;;;;;;;;32.06;13.90;101401.56;5031699;28;19921;-86
2022/08/11 16:17:34;;;;;;;;;;;;;;;31.97;13.92;101406.81;5016182;28;19920;-85
2022/08/11 16:20:03;;;;;;;;;;;;;;;31.93;13.85;101394.31;5016340;28;19928;-83
2022/08/11 16:22:36;;;;;;;;;;;;;;;31.91;13.66;101405.03;5018300;28;20013;-85
2022/08/11 16:25:05;;;;;;;;;;;;;;;31.87;13.67;101395.38;5030181;28;19921;-82
2022/08/11 16:27:57;;;;;;;;;;;;;;;31.82;13.43;101400.94;5030720;28;20244;-81
2022/08/11 16:30:27;;;;;;;;;;;;;;;31.78;13.83;101393.25;5017722;28;20439;-86
2022/08/11 16:32:56;;;;;;;;;;;;;;;31.73;13.87;101396.91;5023822;28;19952;-86
2022/08/11 16:38:37;;;;;;;;;;;;;;;31.63;13.67;101401.50;5033958;28;19927;-84
2022/08/11 16:41:07;;;;;;;;;;;;;;;31.59;13.97;101401.16;5019149;28;19985;-83
2022/08/11 16:49:23;;;;;;;;;;;;;;;31.42;14.02;101387.06;5036899;28;19921;-82
2022/08/11 16:51:51;;;;;;;;;;;;;;;31.39;13.99;101398.94;5045994;28;20422;-83
2022/08/11 16:54:20;;;;;;;;;;;;;;;31.35;13.56;101394.03;5039161;28;19931;-82
2022/08/11 16:56:49;;;;;;;;;;;;;;;31.29;13.98;101387.44;5003530;28;19988;-81
2022/08/11 16:59:19;;;;;;;;;;;;;;;31.25;13.62;101389.06;5017350;28;19922;-83
2022/08/11 17:01:51;;;;;;;;;;;;;;;31.20;14.07;101392.69;5031341;28;20017;-84
2022/08/11 17:13:22;;;;;;;;;;;;;;;30.96;14.18;101398.75;5017517;28;19928;-82
2022/08/11 17:16:10;;;;;;;;;;;;;;;30.90;13.77;101394.16;5030577;28;19929;-80
2022/08/11 17:18:44;;;;;;;;;;;;;;;30.83;14.36;101391.47;5029646;28;19925;-81
2022/08/11 17:21:14;;;;;;;;;;;;;;;30.76;14.26;101394.47;5036420;28;19920;-80
2022/08/11 17:23:48;;;;;;;;;;;;;;;30.71;13.87;101390.69;5017868;28;19921;-82
2022/08/11 17:26:17;;;;;;;;;;;;;;;30.64;14.14;101390.00;5033736;28;19928;-81
2022/08/11 17:28:48;;;;;;;;;;;;;;;30.59;13.96;101396.41;5004500;28;19976;-81
2022/08/11 17:36:52;;;;;;;;;;;;;;;30.40;14.02;101387.31;5035834;28;20029;-79
2022/08/11 17:39:21;;;;;;;;;;;;;;;30.35;14.02;101386.34;5043239;28;20027;-80
2022/08/11 17:50:11;;;;;;;;;;;;;;;30.13;14.39;101394.66;5005734;28;20107;-80
2022/08/11 18:01:06;;;;;;;;;;;;;;;29.93;14.53;101389.44;5031948;28;20434;-79
2022/08/11 18:03:38;;;;;;;;;;;;;;;29.90;14.37;101395.59;5037103;28;19929;-79
2022/08/11 18:06:08;;;;;;;;;;;;;;;29.86;14.61;101387.88;5027249;28;20015;-78
